^^
Lisbon, NH - Weather Station Historical Data
Daily Summary for October 21, 2021 Units:  Both    English   Metric
Daily Weekly Monthly Yearly
  High: Low: Average:
Temperature: 58.6 °F /  14.8 °C 42.7 °F /  5.9 °C 50.6 °F /  10.3 °C
Dew Point: 58.6 °F /  14.8 °C 42.7 °F /  5.9 °C 50.3 °F /  10.2 °C
Humidity: 100% 86.3% 99%
Wind Speed: 2.4mph /  3.9km/h - 0.2mph /  0.3km/h
Wind Gust: 5mph /  8km/h - -
Wind- - ESE
Pressure: 29.95 in /  1014.1 hPa 29.78 in /  1008.4 hPa -
Precipitation: 0.10 in /  2.54 mm    
 
 
Tabular Data for October 21, 2021
Time Temperature Dew Point Pressure Wind Wind Speed Wind Gust Humidity Rainfall Rate (Hourly) solar
00:04 47 °F /  8.3 °C 47 °F /  8.3 °C 29.91in /  1012.8hPa Calm     100% 0.00in /  0mm 0 W/m2
00:09 46.8 °F /  8.2 °C 46.8 °F /  8.2 °C 29.91in /  1012.8hPa Calm     100% 0.00in /  0mm 0 W/m2
00:14 46.8 °F /  8.2 °C 46.8 °F /  8.2 °C 29.91in /  1012.8hPa Calm     100% 0.00in /  0mm 0 W/m2
00:19 46.6 °F /  8.1 °C 46.6 °F /  8.1 °C 29.91in /  1012.8hPa Calm     100% 0.00in /  0mm 0 W/m2
00:24 46.5 °F /  8.1 °C 46.5 °F /  8.1 °C 29.91in /  1012.8hPa Calm     100% 0.00in /  0mm 0 W/m2
00:29 46.4 °F /  8 °C 46.4 °F /  8 °C 29.91in /  1012.8hPa Calm     100% 0.00in /  0mm 0 W/m2
00:34 46.4 °F /  8 °C 46.4 °F /  8 °C 29.91in /  1012.8hPa Calm     100% 0.00in /  0mm 0 W/m2
00:39 46.4 °F /  8 °C 46.4 °F /  8 °C 29.91in /  1012.8hPa Calm     100% 0.00in /  0mm 0 W/m2
00:44 46.5 °F /  8.1 °C 46.5 °F /  8.1 °C 29.92in /  1013.1hPa Calm     100% 0.00in /  0mm 0 W/m2
00:49 46.5 °F /  8.1 °C 46.5 °F /  8.1 °C 29.92in /  1013.1hPa Calm     100% 0.00in /  0mm 0 W/m2
00:54 46.5 °F /  8.1 °C 46.5 °F /  8.1 °C 29.92in /  1013.1hPa Calm     100% 0.00in /  0mm 0 W/m2
00:59 46.5 °F /  8.1 °C 46.5 °F /  8.1 °C 29.92in /  1013.1hPa Calm     100% 0.00in /  0mm 0 W/m2
01:04 46.5 °F /  8.1 °C 46.5 °F /  8.1 °C 29.92in /  1013.1hPa Calm     100% 0.00in /  0mm 0 W/m2
01:09 46.5 °F /  8.1 °C 46.5 °F /  8.1 °C 29.92in /  1013.1hPa Calm     100% 0.00in /  0mm 0 W/m2
01:14 46.5 °F /  8.1 °C 46.5 °F /  8.1 °C 29.92in /  1013.1hPa Calm     100% 0.00in /  0mm 0 W/m2
01:19 46.5 °F /  8.1 °C 46.5 °F /  8.1 °C 29.91in /  1012.8hPa Calm     100% 0.00in /  0mm 0 W/m2
01:24 46.4 °F /  8 °C 46.4 °F /  8 °C 29.91in /  1012.8hPa Calm     100% 0.00in /  0mm 0 W/m2
01:29 46.3 °F /  7.9 °C 46.3 °F /  7.9 °C 29.91in /  1012.8hPa Calm     100% 0.00in /  0mm 0 W/m2
01:34 46.2 °F /  7.9 °C 46.2 °F /  7.9 °C 29.91in /  1012.8hPa Calm     100% 0.00in /  0mm 0 W/m2
01:39 46 °F /  7.8 °C 46 °F /  7.8 °C 29.91in /  1012.8hPa Calm     100% 0.00in /  0mm 0 W/m2
01:44 45.9 °F /  7.7 °C 45.9 °F /  7.7 °C 29.91in /  1012.8hPa Calm     100% 0.00in /  0mm 0 W/m2
01:49 45.8 °F /  7.7 °C 45.8 °F /  7.7 °C 29.91in /  1012.8hPa Calm     100% 0.00in /  0mm 0 W/m2
01:54 45.7 °F /  7.6 °C 45.7 °F /  7.6 °C 29.91in /  1012.8hPa Calm     100% 0.00in /  0mm 0 W/m2
01:59 45.5 °F /  7.5 °C 45.5 °F /  7.5 °C 29.91in /  1012.8hPa Calm     100% 0.00in /  0mm 0 W/m2
02:04 45.4 °F /  7.4 °C 45.4 °F /  7.4 °C 29.91in /  1012.8hPa Calm     100% 0.00in /  0mm 0 W/m2
02:09 45.3 °F /  7.4 °C 45.3 °F /  7.4 °C 29.91in /  1012.8hPa Calm     100% 0.00in /  0mm 0 W/m2
02:14 45.1 °F /  7.3 °C 45.1 °F /  7.3 °C 29.91in /  1012.8hPa Calm     100% 0.00in /  0mm 0 W/m2
02:19 45 °F /  7.2 °C 45 °F /  7.2 °C 29.91in /  1012.8hPa Calm     100% 0.00in /  0mm 0 W/m2
02:24 44.9 °F /  7.2 °C 44.9 °F /  7.2 °C 29.91in /  1012.8hPa Calm     100% 0.00in /  0mm 0 W/m2
02:29 44.8 °F /  7.1 °C 44.8 °F /  7.1 °C 29.91in /  1012.8hPa Calm     100% 0.00in /  0mm 0 W/m2
02:34 44.8 °F /  7.1 °C 44.8 °F /  7.1 °C 29.91in /  1012.8hPa Calm     100% 0.00in /  0mm 0 W/m2
02:39 44.7 °F /  7.1 °C 44.7 °F /  7.1 °C 29.91in /  1012.8hPa Calm     100% 0.00in /  0mm 0 W/m2
02:44 44.6 °F /  7 °C 44.6 °F /  7 °C 29.91in /  1012.8hPa Calm     100% 0.00in /  0mm 0 W/m2
02:49 44.5 °F /  6.9 °C 44.5 °F /  6.9 °C 29.91in /  1012.8hPa Calm     100% 0.00in /  0mm 0 W/m2
02:54 44.5 °F /  6.9 °C 44.5 °F /  6.9 °C 29.91in /  1012.8hPa Calm     100% 0.00in /  0mm 0 W/m2
02:59 44.3 °F /  6.8 °C 44.3 °F /  6.8 °C 29.91in /  1012.8hPa Calm     100% 0.00in /  0mm 0 W/m2
03:04 44.2 °F /  6.8 °C 44.2 °F /  6.8 °C 29.91in /  1012.8hPa Calm     100% 0.00in /  0mm 0 W/m2
03:09 44.1 °F /  6.7 °C 44.1 °F /  6.7 °C 29.91in /  1012.8hPa Calm     100% 0.00in /  0mm 0 W/m2
03:14 43.9 °F /  6.6 °C 43.9 °F /  6.6 °C 29.92in /  1013.1hPa Calm     100% 0.00in /  0mm 0 W/m2
03:19 43.9 °F /  6.6 °C 43.9 °F /  6.6 °C 29.92in /  1013.1hPa Calm     100% 0.00in /  0mm 0 W/m2
03:24 43.8 °F /  6.6 °C 43.8 °F /  6.6 °C 29.92in /  1013.1hPa Calm     100% 0.00in /  0mm 0 W/m2
03:29 43.8 °F /  6.6 °C 43.8 °F /  6.6 °C 29.92in /  1013.1hPa Calm     100% 0.00in /  0mm 0 W/m2
03:34 43.8 °F /  6.6 °C 43.8 °F /  6.6 °C 29.92in /  1013.1hPa Calm     100% 0.00in /  0mm 0 W/m2
03:39 43.8 °F /  6.6 °C 43.8 °F /  6.6 °C 29.92in /  1013.1hPa Calm     100% 0.00in /  0mm 0 W/m2
03:44 43.8 °F /  6.6 °C 43.8 °F /  6.6 °C 29.92in /  1013.1hPa Calm     100% 0.00in /  0mm 0 W/m2
03:49 43.8 °F /  6.6 °C 43.8 °F /  6.6 °C 29.92in /  1013.1hPa Calm     100% 0.00in /  0mm 0 W/m2
03:54 43.8 °F /  6.6 °C 43.8 °F /  6.6 °C 29.92in /  1013.1hPa Calm     100% 0.00in /  0mm 0 W/m2
03:59 43.7 °F /  6.5 °C 43.7 °F /  6.5 °C 29.92in /  1013.1hPa Calm     100% 0.00in /  0mm 0 W/m2
04:04 43.6 °F /  6.4 °C 43.6 °F /  6.4 °C 29.92in /  1013.1hPa Calm     100% 0.00in /  0mm 0 W/m2
04:09 43.5 °F /  6.4 °C 43.5 °F /  6.4 °C 29.92in /  1013.1hPa Calm     100% 0.00in /  0mm 0 W/m2
04:14 43.4 °F /  6.3 °C 43.4 °F /  6.3 °C 29.92in /  1013.1hPa Calm     100% 0.00in /  0mm 0 W/m2
04:19 43.3 °F /  6.3 °C 43.3 °F /  6.3 °C 29.92in /  1013.1hPa Calm     100% 0.00in /  0mm 0 W/m2
04:24 43.2 °F /  6.2 °C 43.2 °F /  6.2 °C 29.92in /  1013.1hPa Calm     100% 0.00in /  0mm 0 W/m2
04:29 43.1 °F /  6.2 °C 43.1 °F /  6.2 °C 29.92in /  1013.1hPa Calm     100% 0.00in /  0mm 0 W/m2
04:34 43.1 °F /  6.2 °C 43.1 °F /  6.2 °C 29.92in /  1013.1hPa Calm     100% 0.00in /  0mm 0 W/m2
04:39 43.1 °F /  6.2 °C 43.1 °F /  6.2 °C 29.92in /  1013.1hPa Calm     100% 0.00in /  0mm 0 W/m2
04:44 43.1 °F /  6.2 °C 43.1 °F /  6.2 °C 29.92in /  1013.1hPa Calm     100% 0.00in /  0mm 0 W/m2
04:49 43.1 °F /  6.2 °C 43.1 °F /  6.2 °C 29.92in /  1013.1hPa Calm     100% 0.00in /  0mm 0 W/m2
04:54 43.1 °F /  6.2 °C 43.1 °F /  6.2 °C 29.92in /  1013.1hPa Calm     100% 0.00in /  0mm 0 W/m2
04:59 43.1 °F /  6.2 °C 43.1 °F /  6.2 °C 29.92in /  1013.1hPa Calm     100% 0.00in /  0mm 0 W/m2
05:04 43.2 °F /  6.2 °C 43.2 °F /  6.2 °C 29.92in /  1013.1hPa Calm     100% 0.00in /  0mm 0 W/m2
05:09 43.2 °F /  6.2 °C 43.2 °F /  6.2 °C 29.92in /  1013.1hPa Calm     100% 0.00in /  0mm 0 W/m2
05:14 43.2 °F /  6.2 °C 43.2 °F /  6.2 °C 29.92in /  1013.1hPa Calm     100% 0.00in /  0mm 0 W/m2
05:19 43.2 °F /  6.2 °C 43.2 °F /  6.2 °C 29.92in /  1013.1hPa Calm     100% 0.00in /  0mm 0 W/m2
05:24 43.2 °F /  6.2 °C 43.2 °F /  6.2 °C 29.92in /  1013.1hPa NNE 0.1mph /  0.2km/h 1mph /  1.6km/h 100% 0.00in /  0mm 0 W/m2
05:29 43.3 °F /  6.3 °C 43.3 °F /  6.3 °C 29.92in /  1013.1hPa ENE 1.2mph /  1.9km/h 2mph /  3.2km/h 100% 0.00in /  0mm 0 W/m2
05:34 43.3 °F /  6.3 °C 43.3 °F /  6.3 °C 29.92in /  1013.1hPa ENE 0.8mph /  1.3km/h 2mph /  3.2km/h 100% 0.00in /  0mm 0 W/m2
05:39 43.3 °F /  6.3 °C 43.3 °F /  6.3 °C 29.92in /  1013.1hPa ENE 0.3mph /  0.5km/h 2mph /  3.2km/h 100% 0.00in /  0mm 0 W/m2
05:44 43.2 °F /  6.2 °C 43.2 °F /  6.2 °C 29.92in /  1013.1hPa Calm   1mph /  1.6km/h 100% 0.00in /  0mm 0 W/m2
05:49 43.1 °F /  6.2 °C 43.1 °F /  6.2 °C 29.92in /  1013.1hPa ENE 0.1mph /  0.2km/h 1mph /  1.6km/h 100% 0.00in /  0mm 0 W/m2
05:54 43.1 °F /  6.2 °C 43.1 °F /  6.2 °C 29.92in /  1013.1hPa NE 0.7mph /  1.1km/h 2mph /  3.2km/h 100% 0.00in /  0mm 0 W/m2
05:59 43.1 °F /  6.2 °C 43.1 °F /  6.2 °C 29.93in /  1013.4hPa NE 0.7mph /  1.1km/h 2mph /  3.2km/h 100% 0.00in /  0mm 0 W/m2
06:04 42.9 °F /  6.1 °C 42.9 °F /  6.1 °C 29.93in /  1013.4hPa NE 0.1mph /  0.2km/h 1mph /  1.6km/h 100% 0.00in /  0mm 0 W/m2
06:09 42.8 °F /  6 °C 42.8 °F /  6 °C 29.93in /  1013.4hPa Calm     100% 0.00in /  0mm 0 W/m2
06:14 42.8 °F /  6 °C 42.8 °F /  6 °C 29.93in /  1013.4hPa Calm     100% 0.00in /  0mm 0 W/m2
06:19 42.7 °F /  5.9 °C 42.7 °F /  5.9 °C 29.93in /  1013.4hPa Calm     100% 0.00in /  0mm 0 W/m2
06:24 42.8 °F /  6 °C 42.8 °F /  6 °C 29.93in /  1013.4hPa Calm     100% 0.00in /  0mm 0 W/m2
06:29 42.8 °F /  6 °C 42.8 °F /  6 °C 29.94in /  1013.8hPa Calm     100% 0.00in /  0mm 0 W/m2
06:34 42.8 °F /  6 °C 42.8 °F /  6 °C 29.94in /  1013.8hPa Calm     100% 0.00in /  0mm 0 W/m2
06:39 42.8 °F /  6 °C 42.8 °F /  6 °C 29.94in /  1013.8hPa Calm     100% 0.00in /  0mm 0 W/m2
06:44 42.8 °F /  6 °C 42.8 °F /  6 °C 29.94in /  1013.8hPa Calm     100% 0.00in /  0mm 0 W/m2
06:49 42.8 °F /  6 °C 42.8 °F /  6 °C 29.93in /  1013.4hPa Calm     100% 0.00in /  0mm 0 W/m2
06:54 42.8 °F /  6 °C 42.8 °F /  6 °C 29.93in /  1013.4hPa Calm     100% 0.00in /  0mm 0 W/m2
06:59 42.9 °F /  6.1 °C 42.9 °F /  6.1 °C 29.93in /  1013.4hPa Calm     100% 0.00in /  0mm 0 W/m2
07:04 42.9 °F /  6.1 °C 42.9 °F /  6.1 °C 29.93in /  1013.4hPa Calm     100% 0.00in /  0mm 0 W/m2
07:09 43 °F /  6.1 °C 43 °F /  6.1 °C 29.93in /  1013.4hPa NE 0.9mph /  1.4km/h 2mph /  3.2km/h 100% 0.00in /  0mm 5 W/m2
07:14 43.1 °F /  6.2 °C 43.1 °F /  6.2 °C 29.94in /  1013.8hPa NE 0.3mph /  0.5km/h 2mph /  3.2km/h 100% 0.00in /  0mm 7 W/m2
07:19 43.1 °F /  6.2 °C 43.1 °F /  6.2 °C 29.94in /  1013.8hPa NE 0.4mph /  0.6km/h 2mph /  3.2km/h 100% 0.00in /  0mm 5 W/m2
07:24 43.1 °F /  6.2 °C 43.1 °F /  6.2 °C 29.94in /  1013.8hPa NE 0.9mph /  1.4km/h 2mph /  3.2km/h 100% 0.00in /  0mm 7 W/m2
07:29 43.1 °F /  6.2 °C 43.1 °F /  6.2 °C 29.94in /  1013.8hPa NE 0.8mph /  1.3km/h 3mph /  4.8km/h 100% 0.00in /  0mm 12 W/m2
07:34 43.1 °F /  6.2 °C 43.1 °F /  6.2 °C 29.94in /  1013.8hPa NE 0.8mph /  1.3km/h 3mph /  4.8km/h 100% 0.00in /  0mm 12 W/m2
07:39 43.2 °F /  6.2 °C 43.2 °F /  6.2 °C 29.94in /  1013.8hPa ENE 1.1mph /  1.8km/h 3mph /  4.8km/h 100% 0.00in /  0mm 18 W/m2
07:44 43.2 °F /  6.2 °C 43.2 °F /  6.2 °C 29.94in /  1013.8hPa ENE 1.2mph /  1.9km/h 3mph /  4.8km/h 100% 0.00in /  0mm 33 W/m2
07:49 43.2 °F /  6.2 °C 43.2 °F /  6.2 °C 29.93in /  1013.4hPa ENE 0.7mph /  1.1km/h 2mph /  3.2km/h 100% 0.00in /  0mm 37 W/m2
07:54 43.2 °F /  6.2 °C 43.2 °F /  6.2 °C 29.93in /  1013.4hPa ENE 0.5mph /  0.8km/h 1mph /  1.6km/h 100% 0.00in /  0mm 39 W/m2
07:59 43.3 °F /  6.3 °C 43.3 °F /  6.3 °C 29.94in /  1013.8hPa ENE 0.6mph /  1km/h 1mph /  1.6km/h 100% 0.00in /  0mm 30 W/m2
08:04 43.3 °F /  6.3 °C 43.3 °F /  6.3 °C 29.94in /  1013.8hPa ENE 0.1mph /  0.2km/h 1mph /  1.6km/h 100% 0.00in /  0mm 19 W/m2
08:09 43.5 °F /  6.4 °C 43.5 °F /  6.4 °C 29.94in /  1013.8hPa ENE 0.5mph /  0.8km/h 2mph /  3.2km/h 100% 0.00in /  0mm 16 W/m2
08:14 43.5 °F /  6.4 °C 43.5 °F /  6.4 °C 29.95in /  1014.1hPa Calm   1mph /  1.6km/h 100% 0.00in /  0mm 18 W/m2
08:19 43.5 °F /  6.4 °C 43.5 °F /  6.4 °C 29.95in /  1014.1hPa Calm   1mph /  1.6km/h 100% 0.00in /  0mm 25 W/m2
08:24 43.5 °F /  6.4 °C 43.5 °F /  6.4 °C 29.95in /  1014.1hPa Calm     100% 0.00in /  0mm 25 W/m2
08:29 43.6 °F /  6.4 °C 43.6 °F /  6.4 °C 29.95in /  1014.1hPa Calm     100% 0.00in /  0mm 39 W/m2
08:34 43.8 °F /  6.6 °C 43.8 °F /  6.6 °C 29.95in /  1014.1hPa Calm     100% 0.00in /  0mm 56 W/m2
08:39 44 °F /  6.7 °C 44 °F /  6.7 °C 29.95in /  1014.1hPa ENE 0.1mph /  0.2km/h 1mph /  1.6km/h 100% 0.00in /  0mm 60 W/m2
08:44 44.2 °F /  6.8 °C 44.2 °F /  6.8 °C 29.95in /  1014.1hPa ENE 0.2mph /  0.3km/h 1mph /  1.6km/h 100% 0.00in /  0mm 49 W/m2
08:49 44.4 °F /  6.9 °C 44.4 °F /  6.9 °C 29.95in /  1014.1hPa Calm   1mph /  1.6km/h 100% 0.00in /  0mm 49 W/m2
08:54 44.6 °F /  7 °C 44.6 °F /  7 °C 29.95in /  1014.1hPa Calm   1mph /  1.6km/h 100% 0.00in /  0mm 39 W/m2
08:59 44.7 °F /  7.1 °C 44.7 °F /  7.1 °C 29.95in /  1014.1hPa ENE 0.3mph /  0.5km/h 1mph /  1.6km/h 100% 0.00in /  0mm 60 W/m2
09:04 44.9 °F /  7.2 °C 44.9 °F /  7.2 °C 29.95in /  1014.1hPa ENE 0.2mph /  0.3km/h 2mph /  3.2km/h 100% 0.00in /  0mm 70 W/m2
09:09 45.1 °F /  7.3 °C 45.1 °F /  7.3 °C 29.95in /  1014.1hPa ENE 0.1mph /  0.2km/h 1mph /  1.6km/h 100% 0.00in /  0mm 70 W/m2
09:14 45.4 °F /  7.4 °C 45.4 °F /  7.4 °C 29.95in /  1014.1hPa ENE 0.4mph /  0.6km/h 2mph /  3.2km/h 100% 0.00in /  0mm 84 W/m2
09:19 45.7 °F /  7.6 °C 45.7 °F /  7.6 °C 29.95in /  1014.1hPa ENE 0.8mph /  1.3km/h 2mph /  3.2km/h 100% 0.00in /  0mm 132 W/m2
09:24 45.9 °F /  7.7 °C 45.9 °F /  7.7 °C 29.95in /  1014.1hPa ENE 0.1mph /  0.2km/h 1mph /  1.6km/h 100% 0.00in /  0mm 104 W/m2
09:29 46.1 °F /  7.8 °C 46.1 °F /  7.8 °C 29.95in /  1014.1hPa ENE 0.3mph /  0.5km/h 1mph /  1.6km/h 100% 0.00in /  0mm 93 W/m2
09:34 46.3 °F /  7.9 °C 46.3 °F /  7.9 °C 29.94in /  1013.8hPa ENE 0.8mph /  1.3km/h 2mph /  3.2km/h 100% 0.00in /  0mm 90 W/m2
09:39 46.6 °F /  8.1 °C 46.6 °F /  8.1 °C 29.94in /  1013.8hPa ENE 0.9mph /  1.4km/h 2mph /  3.2km/h 100% 0.00in /  0mm 83 W/m2
09:44 46.7 °F /  8.2 °C 46.7 °F /  8.2 °C 29.94in /  1013.8hPa ENE 1.8mph /  2.9km/h 2mph /  3.2km/h 100% 0.00in /  0mm 60 W/m2
09:49 46.9 °F /  8.3 °C 46.9 °F /  8.3 °C 29.94in /  1013.8hPa NE 0.7mph /  1.1km/h 2mph /  3.2km/h 100% 0.00in /  0mm 155 W/m2
09:54 47.2 °F /  8.4 °C 47.2 °F /  8.4 °C 29.94in /  1013.8hPa ENE 1.1mph /  1.8km/h 2mph /  3.2km/h 100% 0.00in /  0mm 179 W/m2
09:59 47.6 °F /  8.7 °C 47.6 °F /  8.7 °C 29.94in /  1013.8hPa ENE 1.1mph /  1.8km/h 2mph /  3.2km/h 100% 0.00in /  0mm 304 W/m2
10:04 48.2 °F /  9 °C 48.2 °F /  9 °C 29.93in /  1013.4hPa ENE 1.3mph /  2.1km/h 2mph /  3.2km/h 100% 0.00in /  0mm 230 W/m2
10:09 48.6 °F /  9.2 °C 48.6 °F /  9.2 °C 29.93in /  1013.4hPa ENE 0.7mph /  1.1km/h 2mph /  3.2km/h 100% 0.00in /  0mm 315 W/m2
10:14 49.1 °F /  9.5 °C 49.1 °F /  9.5 °C 29.93in /  1013.4hPa ENE 1mph /  1.6km/h 2mph /  3.2km/h 100% 0.00in /  0mm 301 W/m2
10:19 49.6 °F /  9.8 °C 49.6 °F /  9.8 °C 29.92in /  1013.1hPa ENE 0.3mph /  0.5km/h 2mph /  3.2km/h 100% 0.00in /  0mm 385 W/m2
10:24 50.2 °F /  10.1 °C 50.2 °F /  10.1 °C 29.92in /  1013.1hPa East 0.2mph /  0.3km/h 2mph /  3.2km/h 100% 0.00in /  0mm 405 W/m2
10:29 50.8 °F /  10.4 °C 50.8 °F /  10.4 °C 29.92in /  1013.1hPa SSW 0.6mph /  1km/h 2mph /  3.2km/h 100% 0.00in /  0mm 389 W/m2
10:34 51.5 °F /  10.8 °C 51.5 °F /  10.8 °C 29.92in /  1013.1hPa SSW 1.9mph /  3.1km/h 4mph /  6.4km/h 100% 0.00in /  0mm 493 W/m2
10:39 52.1 °F /  11.2 °C 52 °F /  11.1 °C 29.92in /  1013.1hPa SSW 1.6mph /  2.6km/h 5mph /  8km/h 99.4% 0.00in /  0mm 493 W/m2
10:44 52.9 °F /  11.6 °C 52.2 °F /  11.2 °C 29.92in /  1013.1hPa SSW 1.4mph /  2.3km/h 5mph /  8km/h 97.5% 0.00in /  0mm 584 W/m2
10:49 53.8 °F /  12.1 °C 52.5 °F /  11.4 °C 29.91in /  1012.8hPa SSW 1.9mph /  3.1km/h 4mph /  6.4km/h 95.5% 0.00in /  0mm 584 W/m2
10:54 54.3 °F /  12.4 °C 52.6 °F /  11.4 °C 29.91in /  1012.8hPa SSW 1.1mph /  1.8km/h 3mph /  4.8km/h 93.9% 0.00in /  0mm 320 W/m2
10:59 54.8 °F /  12.7 °C 52.6 °F /  11.4 °C 29.91in /  1012.8hPa SSW 1.2mph /  1.9km/h 3mph /  4.8km/h 92.3% 0.00in /  0mm 262 W/m2
11:04 55 °F /  12.8 °C 52.3 °F /  11.3 °C 29.91in /  1012.8hPa SW 1.8mph /  2.9km/h 5mph /  8km/h 90.4% 0.00in /  0mm 255 W/m2
11:09 55.4 °F /  13 °C 52.5 °F /  11.4 °C 29.91in /  1012.8hPa SW 0.9mph /  1.4km/h 3mph /  4.8km/h 89.8% 0.00in /  0mm 255 W/m2
11:14 55.8 °F /  13.2 °C 52.3 °F /  11.3 °C 29.92in /  1013.1hPa SW 2.4mph /  3.9km/h 5mph /  8km/h 87.8% 0.00in /  0mm 179 W/m2
11:19 56 °F /  13.3 °C 52.1 °F /  11.2 °C 29.92in /  1013.1hPa SW 0.8mph /  1.3km/h 5mph /  8km/h 86.8% 0.00in /  0mm 100 W/m2
11:24 56.2 °F /  13.4 °C 52.2 °F /  11.2 °C 29.92in /  1013.1hPa SW 1.5mph /  2.4km/h 5mph /  8km/h 86.3% 0.00in /  0mm 72 W/m2
11:29 56.2 °F /  13.4 °C 52.3 °F /  11.3 °C 29.92in /  1013.1hPa SW 0.2mph /  0.3km/h 5mph /  8km/h 86.6% 0.00in /  0mm 74 W/m2
11:34 56.4 °F /  13.6 °C 52.6 °F /  11.4 °C 29.92in /  1013.1hPa SW 0.2mph /  0.3km/h 2mph /  3.2km/h 87% 0.00in /  0mm 95 W/m2
11:39 56.5 °F /  13.6 °C 52.7 °F /  11.5 °C 29.92in /  1013.1hPa SW 0.6mph /  1km/h 3mph /  4.8km/h 87% 0.00in /  0mm 99 W/m2
11:44 56.6 °F /  13.7 °C 52.9 °F /  11.6 °C 29.92in /  1013.1hPa SSW 0.1mph /  0.2km/h 1mph /  1.6km/h 87.6% 0.00in /  0mm 77 W/m2
11:49 56.7 °F /  13.7 °C 53.2 °F /  11.8 °C 29.92in /  1013.1hPa Calm   1mph /  1.6km/h 88% 0.00in /  0mm 63 W/m2
11:54 56.7 °F /  13.7 °C 53.4 °F /  11.9 °C 29.92in /  1013.1hPa Calm     88.6% 0.00in /  0mm 90 W/m2
11:59 56.7 °F /  13.7 °C 53.5 °F /  11.9 °C 29.92in /  1013.1hPa Calm     89% 0.00in /  0mm 95 W/m2
12:04 56.9 °F /  13.8 °C 54.1 °F /  12.3 °C 29.92in /  1013.1hPa ENE 0.5mph /  0.8km/h 2mph /  3.2km/h 90.3% 0.01in /  0.25mm 90 W/m2
12:09 57 °F /  13.9 °C 54.6 °F /  12.6 °C 29.92in /  1013.1hPa ENE 1.2mph /  1.9km/h 2mph /  3.2km/h 91.6% 0.01in /  0.25mm 113 W/m2
12:14 56.9 °F /  13.8 °C 54.6 °F /  12.6 °C 29.92in /  1013.1hPa NE 0.4mph /  0.6km/h 2mph /  3.2km/h 92% 0.01in /  0.25mm 132 W/m2
12:19 56.9 °F /  13.8 °C 54.9 °F /  12.7 °C 29.89in /  1012.1hPa NNE 0.2mph /  0.3km/h 1mph /  1.6km/h 92.9% 0.01in /  0.25mm 139 W/m2
12:24 56.9 °F /  13.8 °C 55.1 °F /  12.8 °C 29.89in /  1012.1hPa Calm   1mph /  1.6km/h 93.8% 0.01in /  0.25mm 127 W/m2
12:29 57 °F /  13.9 °C 55.6 °F /  13.1 °C 29.89in /  1012.1hPa Calm     95% 0.01in /  0.25mm 137 W/m2
12:34 57.1 °F /  13.9 °C 56 °F /  13.3 °C 29.88in /  1011.7hPa Calm     96% 0.01in /  0.25mm 134 W/m2
12:39 57.3 °F /  14.1 °C 56.3 °F /  13.5 °C 29.88in /  1011.7hPa Calm   1mph /  1.6km/h 96.4% 0.01in /  0.25mm 155 W/m2
12:44 57.5 °F /  14.2 °C 56.7 °F /  13.7 °C 29.88in /  1011.7hPa NW 0.4mph /  0.6km/h 2mph /  3.2km/h 97% 0.01in /  0.25mm 155 W/m2
12:49 57.6 °F /  14.2 °C 56.8 °F /  13.8 °C 29.88in /  1011.7hPa Calm   1mph /  1.6km/h 97% 0.01in /  0.25mm 102 W/m2
12:54 57.7 °F /  14.3 °C 56.9 °F /  13.8 °C 29.88in /  1011.7hPa SW 0.1mph /  0.2km/h 1mph /  1.6km/h 97% 0.01in /  0.25mm 70 W/m2
12:59 57.8 °F /  14.3 °C 57 °F /  13.9 °C 29.88in /  1011.7hPa SW 0.4mph /  0.6km/h 2mph /  3.2km/h 97% 0.01in /  0.25mm 76 W/m2
13:04 57.6 °F /  14.2 °C 56.8 °F /  13.8 °C 29.88in /  1011.7hPa NW 0.1mph /  0.2km/h 2mph /  3.2km/h 97% 0.01in /  0.25mm 76 W/m2
13:09 57.6 °F /  14.2 °C 56.8 °F /  13.8 °C 29.88in /  1011.7hPa NW 0.1mph /  0.2km/h 1mph /  1.6km/h 97% 0.01in /  0.25mm 77 W/m2
13:14 57.6 °F /  14.2 °C 56.8 °F /  13.8 °C 29.88in /  1011.7hPa Calm     97% 0.01in /  0.25mm 56 W/m2
13:19 57.6 °F /  14.2 °C 56.8 °F /  13.8 °C 29.88in /  1011.7hPa Calm   1mph /  1.6km/h 97.2% 0.01in /  0.25mm 53 W/m2
13:24 57.6 °F /  14.2 °C 57 °F /  13.9 °C 29.88in /  1011.7hPa Calm   1mph /  1.6km/h 98% 0.02in /  0.51mm 44 W/m2
13:29 57.6 °F /  14.2 °C 57 °F /  13.9 °C 29.88in /  1011.7hPa Calm     98% 0.03in /  0.76mm 35 W/m2
13:34 57.6 °F /  14.2 °C 57 °F /  13.9 °C 29.88in /  1011.7hPa Calm     98% 0.03in /  0.76mm 44 W/m2
13:39 57.6 °F /  14.2 °C 57.1 °F /  13.9 °C 29.88in /  1011.7hPa SW 1.1mph /  1.8km/h 4mph /  6.4km/h 98.4% 0.03in /  0.76mm 44 W/m2
13:44 57.5 °F /  14.2 °C 57.2 °F /  14 °C 29.90in /  1012.4hPa Calm   2mph /  3.2km/h 99% 0.04in /  1.02mm 37 W/m2
13:49 57.3 °F /  14.1 °C 57 °F /  13.9 °C 29.90in /  1012.4hPa SW 0.4mph /  0.6km/h 2mph /  3.2km/h 99% 0.04in /  1.02mm 25 W/m2
13:54 57.2 °F /  14 °C 57 °F /  13.9 °C 29.90in /  1012.4hPa South 0.1mph /  0.2km/h 2mph /  3.2km/h 99% 0.05in /  1.27mm 76 W/m2
13:59 57.2 °F /  14 °C 56.9 °F /  13.8 °C 29.90in /  1012.4hPa South 0.6mph /  1km/h 2mph /  3.2km/h 99% 0.06in /  1.52mm 97 W/m2
14:04 57 °F /  13.9 °C 56.8 °F /  13.8 °C 29.89in /  1012.1hPa SW 0.3mph /  0.5km/h 2mph /  3.2km/h 99.2% 0.06in /  1.52mm 99 W/m2
14:09 57 °F /  13.9 °C 57 °F /  13.9 °C 29.89in /  1012.1hPa Calm     100% 0.06in /  1.52mm 84 W/m2
14:14 57 °F /  13.9 °C 57 °F /  13.9 °C 29.90in /  1012.4hPa Calm     100% 0.07in /  1.78mm 35 W/m2
14:19 57 °F /  13.9 °C 57 °F /  13.9 °C 29.90in /  1012.4hPa Calm   1mph /  1.6km/h 100% 0.07in /  1.78mm 25 W/m2
14:24 57 °F /  13.9 °C 57 °F /  13.9 °C 29.90in /  1012.4hPa Calm   1mph /  1.6km/h 100% 0.07in /  1.78mm 55 W/m2
14:29 56.9 °F /  13.8 °C 56.9 °F /  13.8 °C 29.90in /  1012.4hPa Calm     100% 0.07in /  1.78mm 56 W/m2
14:34 57 °F /  13.9 °C 57 °F /  13.9 °C 29.90in /  1012.4hPa Calm     100% 0.07in /  1.78mm 35 W/m2
14:39 57 °F /  13.9 °C 57 °F /  13.9 °C 29.90in /  1012.4hPa Calm     100% 0.05in /  1.27mm 48 W/m2
14:44 57 °F /  13.9 °C 57 °F /  13.9 °C 29.90in /  1012.4hPa SW 0.1mph /  0.2km/h 1mph /  1.6km/h 100% 0.05in /  1.27mm 55 W/m2
14:49 57 °F /  13.9 °C 57 °F /  13.9 °C 29.88in /  1011.7hPa Calm   1mph /  1.6km/h 100% 0.05in /  1.27mm 77 W/m2
14:54 57.2 °F /  14 °C 57.2 °F /  14 °C 29.88in /  1011.7hPa Calm     100% 0.05in /  1.27mm 93 W/m2
14:59 57.4 °F /  14.1 °C 57.4 °F /  14.1 °C 29.88in /  1011.7hPa Calm     100% 0.04in /  1.02mm 118 W/m2
15:04 57.5 °F /  14.2 °C 57.5 °F /  14.2 °C 29.86in /  1011.1hPa South 0.6mph /  1km/h 1mph /  1.6km/h 100% 0.04in /  1.02mm 102 W/m2
15:09 57.6 °F /  14.2 °C 57.6 °F /  14.2 °C 29.86in /  1011.1hPa Calm   1mph /  1.6km/h 100% 0.02in /  0.51mm 125 W/m2
15:14 57.7 °F /  14.3 °C 57.7 °F /  14.3 °C 29.86in /  1011.1hPa East 0.6mph /  1km/h 2mph /  3.2km/h 100% 0.02in /  0.51mm 113 W/m2
15:19 58 °F /  14.4 °C 58 °F /  14.4 °C 29.85in /  1010.7hPa ENE 0.7mph /  1.1km/h 2mph /  3.2km/h 100% 0.02in /  0.51mm 113 W/m2
15:24 58.1 °F /  14.5 °C 58.1 °F /  14.5 °C 29.85in /  1010.7hPa Calm   1mph /  1.6km/h 100% 0.02in /  0.51mm 95 W/m2
15:29 57.9 °F /  14.4 °C 57.9 °F /  14.4 °C 29.85in /  1010.7hPa East 0.7mph /  1.1km/h 2mph /  3.2km/h 100% 0.01in /  0.25mm 100 W/m2
15:34 57.6 °F /  14.2 °C 57.6 °F /  14.2 °C 29.85in /  1010.7hPa Calm   1mph /  1.6km/h 100% 0.01in /  0.25mm 104 W/m2
15:39 57.7 °F /  14.3 °C 57.7 °F /  14.3 °C 29.85in /  1010.7hPa Calm     100% 0.01in /  0.25mm 104 W/m2
15:44 57.9 °F /  14.4 °C 57.9 °F /  14.4 °C 29.85in /  1010.7hPa Calm   1mph /  1.6km/h 100% 0.01in /  0.25mm 106 W/m2
15:49 58 °F /  14.4 °C 58 °F /  14.4 °C 29.83in /  1010hPa East 0.2mph /  0.3km/h 1mph /  1.6km/h 100% 0.01in /  0.25mm 106 W/m2
15:54 58.1 °F /  14.5 °C 58.1 °F /  14.5 °C 29.83in /  1010hPa ENE 0.8mph /  1.3km/h 2mph /  3.2km/h 100% 0.01in /  0.25mm 104 W/m2
15:59 58.3 °F /  14.6 °C 58.3 °F /  14.6 °C 29.83in /  1010hPa ENE 0.1mph /  0.2km/h 1mph /  1.6km/h 100% 0.01in /  0.25mm 83 W/m2
16:04 58.4 °F /  14.7 °C 58.4 °F /  14.7 °C 29.82in /  1009.7hPa ENE 0.8mph /  1.3km/h 2mph /  3.2km/h 100% 0.01in /  0.25mm 65 W/m2
16:09 58.3 °F /  14.6 °C 58.3 °F /  14.6 °C 29.82in /  1009.7hPa ENE 0.1mph /  0.2km/h 1mph /  1.6km/h 100% 0.01in /  0.25mm 60 W/m2
16:14 58.3 °F /  14.6 °C 58.3 °F /  14.6 °C 29.83in /  1010hPa Calm     100% 0.01in /  0.25mm 60 W/m2
16:19 58.3 °F /  14.6 °C 58.3 °F /  14.6 °C 29.83in /  1010hPa Calm     100% 0.01in /  0.25mm 58 W/m2
16:24 58.4 °F /  14.7 °C 58.4 °F /  14.7 °C 29.83in /  1010hPa Calm     100% 0.01in /  0.25mm 49 W/m2
16:29 58.5 °F /  14.7 °C 58.5 °F /  14.7 °C 29.83in /  1010hPa Calm   1mph /  1.6km/h 100% 0.01in /  0.25mm 42 W/m2
16:34 58.6 °F /  14.8 °C 58.6 °F /  14.8 °C 29.83in /  1010hPa SSE 0.1mph /  0.2km/h 1mph /  1.6km/h 100% 0.01in /  0.25mm 42 W/m2
16:39 58.6 °F /  14.8 °C 58.6 °F /  14.8 °C 29.83in /  1010hPa SSE 0.1mph /  0.2km/h 1mph /  1.6km/h 100% 0.01in /  0.25mm 42 W/m2
16:44 58.5 °F /  14.7 °C 58.5 °F /  14.7 °C 29.83in /  1010hPa SSE 0.1mph /  0.2km/h 1mph /  1.6km/h 100% 0.01in /  0.25mm 44 W/m2
16:49 58.4 °F /  14.7 °C 58.4 °F /  14.7 °C 29.83in /  1010hPa SSE 0.1mph /  0.2km/h 1mph /  1.6km/h 100% 0.00in /  0mm 53 W/m2
16:54 58.4 °F /  14.7 °C 58.4 °F /  14.7 °C 29.83in /  1010hPa Calm     100% 0.00in /  0mm 48 W/m2
16:59 58.4 °F /  14.7 °C 58.4 °F /  14.7 °C 29.83in /  1010hPa Calm     100% 0.00in /  0mm 44 W/m2
17:04 58.4 °F /  14.7 °C 58.4 °F /  14.7 °C 29.83in /  1010hPa Calm     100% 0.00in /  0mm 40 W/m2
17:09 58.4 °F /  14.7 °C 58.4 °F /  14.7 °C 29.83in /  1010hPa Calm     100% 0.00in /  0mm 18 W/m2
17:14 58.4 °F /  14.7 °C 58.4 °F /  14.7 °C 29.83in /  1010hPa Calm     100% 0.00in /  0mm 11 W/m2
17:19 58.3 °F /  14.6 °C 58.3 °F /  14.6 °C 29.82in /  1009.7hPa Calm     100% 0.00in /  0mm 7 W/m2
17:24 58.3 °F /  14.6 °C 58.3 °F /  14.6 °C 29.82in /  1009.7hPa Calm     100% 0.00in /  0mm 5 W/m2
17:29 58.3 °F /  14.6 °C 58.3 °F /  14.6 °C 29.82in /  1009.7hPa Calm     100% 0.00in /  0mm 5 W/m2
17:34 58.2 °F /  14.6 °C 58.2 °F /  14.6 °C 29.82in /  1009.7hPa Calm     100% 0.00in /  0mm 5 W/m2
17:39 58.1 °F /  14.5 °C 58.1 °F /  14.5 °C 29.82in /  1009.7hPa Calm     100% 0.00in /  0mm 5 W/m2
17:44 58 °F /  14.4 °C 58 °F /  14.4 °C 29.82in /  1009.7hPa Calm     100% 0.00in /  0mm 5 W/m2
17:49 58 °F /  14.4 °C 58 °F /  14.4 °C 29.82in /  1009.7hPa Calm     100% 0.00in /  0mm 0 W/m2
17:54 57.9 °F /  14.4 °C 57.9 °F /  14.4 °C 29.82in /  1009.7hPa Calm     100% 0.00in /  0mm 0 W/m2
17:59 57.8 °F /  14.3 °C 57.8 °F /  14.3 °C 29.82in /  1009.7hPa Calm     100% 0.00in /  0mm 0 W/m2
18:04 57.6 °F /  14.2 °C 57.6 °F /  14.2 °C 29.82in /  1009.7hPa Calm     100% 0.00in /  0mm 0 W/m2
18:09 57.5 °F /  14.2 °C 57.5 °F /  14.2 °C 29.82in /  1009.7hPa Calm     100% 0.00in /  0mm 0 W/m2
18:14 57.2 °F /  14 °C 57.2 °F /  14 °C 29.82in /  1009.7hPa Calm     100% 0.00in /  0mm 0 W/m2
18:19 56.9 °F /  13.8 °C 56.9 °F /  13.8 °C 29.82in /  1009.7hPa Calm     100% 0.00in /  0mm 0 W/m2
18:24 56.7 °F /  13.7 °C 56.7 °F /  13.7 °C 29.82in /  1009.7hPa Calm     100% 0.00in /  0mm 0 W/m2
18:29 56.4 °F /  13.6 °C 56.4 °F /  13.6 °C 29.82in /  1009.7hPa Calm   1mph /  1.6km/h 100% 0.00in /  0mm 0 W/m2
18:34 56 °F /  13.3 °C 56 °F /  13.3 °C 29.81in /  1009.4hPa Calm     100% 0.00in /  0mm 0 W/m2
18:39 55.9 °F /  13.3 °C 55.9 °F /  13.3 °C 29.81in /  1009.4hPa Calm     100% 0.00in /  0mm 0 W/m2
18:44 55.8 °F /  13.2 °C 55.8 °F /  13.2 °C 29.81in /  1009.4hPa Calm     100% 0.00in /  0mm 0 W/m2
18:49 55.6 °F /  13.1 °C 55.6 °F /  13.1 °C 29.81in /  1009.4hPa Calm     100% 0.00in /  0mm 0 W/m2
18:54 55.5 °F /  13.1 °C 55.5 °F /  13.1 °C 29.81in /  1009.4hPa Calm     100% 0.00in /  0mm 0 W/m2
18:59 55.4 °F /  13 °C 55.4 °F /  13 °C 29.81in /  1009.4hPa Calm     100% 0.00in /  0mm 0 W/m2
19:04 55.4 °F /  13 °C 55.4 °F /  13 °C 29.81in /  1009.4hPa Calm     100% 0.00in /  0mm 0 W/m2
19:09 55.4 °F /  13 °C 55.4 °F /  13 °C 29.81in /  1009.4hPa Calm     100% 0.00in /  0mm 0 W/m2
19:14 55.3 °F /  12.9 °C 55.3 °F /  12.9 °C 29.81in /  1009.4hPa Calm     100% 0.00in /  0mm 0 W/m2
19:19 55.3 °F /  12.9 °C 55.3 °F /  12.9 °C 29.81in /  1009.4hPa Calm     100% 0.00in /  0mm 0 W/m2
19:24 55.3 °F /  12.9 °C 55.3 °F /  12.9 °C 29.81in /  1009.4hPa Calm     100% 0.00in /  0mm 0 W/m2
19:29 55.3 °F /  12.9 °C 55.3 °F /  12.9 °C 29.81in /  1009.4hPa Calm     100% 0.00in /  0mm 0 W/m2
19:34 55.3 °F /  12.9 °C 55.3 °F /  12.9 °C 29.81in /  1009.4hPa Calm     100% 0.00in /  0mm 0 W/m2
19:39 55.3 °F /  12.9 °C 55.3 °F /  12.9 °C 29.81in /  1009.4hPa Calm     100% 0.00in /  0mm 0 W/m2
19:44 55.3 °F /  12.9 °C 55.3 °F /  12.9 °C 29.81in /  1009.4hPa Calm     100% 0.00in /  0mm 0 W/m2
19:49 55.3 °F /  12.9 °C 55.3 °F /  12.9 °C 29.81in /  1009.4hPa Calm     100% 0.00in /  0mm 0 W/m2
19:54 55.1 °F /  12.8 °C 55.1 °F /  12.8 °C 29.81in /  1009.4hPa Calm     100% 0.00in /  0mm 0 W/m2
19:59 55.2 °F /  12.9 °C 55.2 °F /  12.9 °C 29.81in /  1009.4hPa Calm     100% 0.00in /  0mm 0 W/m2
20:04 55.3 °F /  12.9 °C 55.3 °F /  12.9 °C 29.80in /  1009hPa Calm     100% 0.00in /  0mm 0 W/m2
20:09 55.3 °F /  12.9 °C 55.3 °F /  12.9 °C 29.80in /  1009hPa Calm     100% 0.00in /  0mm 0 W/m2
20:14 55.4 °F /  13 °C 55.4 °F /  13 °C 29.80in /  1009hPa Calm     100% 0.00in /  0mm 0 W/m2
20:19 55.4 °F /  13 °C 55.4 °F /  13 °C 29.79in /  1008.7hPa Calm     100% 0.00in /  0mm 0 W/m2
20:24 55.4 °F /  13 °C 55.4 °F /  13 °C 29.79in /  1008.7hPa Calm     100% 0.00in /  0mm 0 W/m2
20:29 55.3 °F /  12.9 °C 55.3 °F /  12.9 °C 29.79in /  1008.7hPa ESE 0.1mph /  0.2km/h 1mph /  1.6km/h 100% 0.00in /  0mm 0 W/m2
20:34 55.3 °F /  12.9 °C 55.3 °F /  12.9 °C 29.78in /  1008.4hPa East 0.3mph /  0.5km/h 2mph /  3.2km/h 100% 0.00in /  0mm 0 W/m2
20:39 55.2 °F /  12.9 °C 55.2 °F /  12.9 °C 29.78in /  1008.4hPa East 0.5mph /  0.8km/h 2mph /  3.2km/h 100% 0.00in /  0mm 0 W/m2
20:40 55.1 °F /  12.8 °C 55.1 °F /  12.8 °C 29.78in /  1008.4hPa ENE 0.4mph /  0.6km/h 2mph /  3.2km/h 100% 0.00in /  0mm 0 W/m2
Lisbon, New Hampshire, USA
Compliments of Weather Underground - 3.75 mb